sensor_id;sensor_type;location;lat;lon;timestamp;P1;durP1;ratioP1;P2;durP2;ratioP2
45620;SDS011;31345;51.522;10.702;2023-05-23T00:01:27;18.88;;;15.25;;
45620;SDS011;31345;51.522;10.702;2023-05-23T00:04:01;18.27;;;15.23;;
45620;SDS011;31345;51.522;10.702;2023-05-23T00:06:33;20.10;;;15.63;;
45620;SDS011;31345;51.522;10.702;2023-05-23T00:09:08;16.52;;;14.25;;
45620;SDS011;31345;51.522;10.702;2023-05-23T00:11:41;22.85;;;17.50;;
45620;SDS011;31345;51.522;10.702;2023-05-23T00:14:15;23.30;;;17.75;;
45620;SDS011;31345;51.522;10.702;2023-05-23T00:16:49;21.13;;;17.90;;
45620;SDS011;31345;51.522;10.702;2023-05-23T00:19:21;25.15;;;20.02;;
45620;SDS011;31345;51.522;10.702;2023-05-23T00:21:55;25.92;;;19.80;;
45620;SDS011;31345;51.522;10.702;2023-05-23T00:24:28;26.85;;;20.23;;
45620;SDS011;31345;51.522;10.702;2023-05-23T00:27:00;24.92;;;18.92;;
45620;SDS011;31345;51.522;10.702;2023-05-23T00:29:33;23.08;;;18.10;;
45620;SDS011;31345;51.522;10.702;2023-05-23T00:32:07;25.35;;;19.25;;
45620;SDS011;31345;51.522;10.702;2023-05-23T00:34:39;23.13;;;18.23;;
45620;SDS011;31345;51.522;10.702;2023-05-23T00:37:06;21.90;;;17.83;;
45620;SDS011;31345;51.522;10.702;2023-05-23T00:39:39;21.15;;;17.88;;
45620;SDS011;31345;51.522;10.702;2023-05-23T00:42:11;23.33;;;18.60;;
45620;SDS011;31345;51.522;10.702;2023-05-23T00:44:44;21.35;;;17.30;;
45620;SDS011;31345;51.522;10.702;2023-05-23T00:47:15;21.95;;;16.42;;
45620;SDS011;31345;51.522;10.702;2023-05-23T00:49:48;20.52;;;16.88;;
45620;SDS011;31345;51.522;10.702;2023-05-23T00:52:21;19.55;;;16.70;;
45620;SDS011;31345;51.522;10.702;2023-05-23T00:54:53;19.90;;;16.20;;
45620;SDS011;31345;51.522;10.702;2023-05-23T00:57:26;18.73;;;15.82;;
45620;SDS011;31345;51.522;10.702;2023-05-23T00:59:59;21.05;;;16.73;;
45620;SDS011;31345;51.522;10.702;2023-05-23T01:02:33;18.38;;;15.75;;
45620;SDS011;31345;51.522;10.702;2023-05-23T01:05:11;20.58;;;17.13;;
45620;SDS011;31345;51.522;10.702;2023-05-23T01:07:45;21.60;;;17.42;;
45620;SDS011;31345;51.522;10.702;2023-05-23T01:10:19;20.33;;;16.88;;
45620;SDS011;31345;51.522;10.702;2023-05-23T01:12:56;20.02;;;17.73;;
45620;SDS011;31345;51.522;10.702;2023-05-23T01:15:41;20.20;;;16.15;;
45620;SDS011;31345;51.522;10.702;2023-05-23T01:18:23;19.00;;;16.13;;
45620;SDS011;31345;51.522;10.702;2023-05-23T01:20:58;17.67;;;15.18;;
45620;SDS011;31345;51.522;10.702;2023-05-23T01:26:42;18.25;;;15.07;;
45620;SDS011;31345;51.522;10.702;2023-05-23T01:29:33;18.65;;;15.98;;
45620;SDS011;31345;51.522;10.702;2023-05-23T01:32:10;18.25;;;15.13;;
45620;SDS011;31345;51.522;10.702;2023-05-23T01:34:43;20.30;;;15.27;;
45620;SDS011;31345;51.522;10.702;2023-05-23T01:37:18;22.40;;;16.35;;
45620;SDS011;31345;51.522;10.702;2023-05-23T01:39:51;22.20;;;17.15;;
45620;SDS011;31345;51.522;10.702;2023-05-23T01:42:23;19.25;;;15.75;;
45620;SDS011;31345;51.522;10.702;2023-05-23T01:44:59;20.23;;;16.40;;
45620;SDS011;31345;51.522;10.702;2023-05-23T01:47:31;24.98;;;17.35;;
45620;SDS011;31345;51.522;10.702;2023-05-23T01:50:06;23.90;;;17.83;;
45620;SDS011;31345;51.522;10.702;2023-05-23T01:52:40;23.65;;;18.50;;
45620;SDS011;31345;51.522;10.702;2023-05-23T01:55:13;21.17;;;17.73;;
45620;SDS011;31345;51.522;10.702;2023-05-23T01:57:52;21.58;;;17.83;;
45620;SDS011;31345;51.522;10.702;2023-05-23T02:00:28;23.05;;;17.50;;
45620;SDS011;31345;51.522;10.702;2023-05-23T02:03:02;24.15;;;18.00;;
45620;SDS011;31345;51.522;10.702;2023-05-23T02:05:37;24.55;;;19.98;;
45620;SDS011;31345;51.522;10.702;2023-05-23T02:08:09;24.60;;;19.35;;
45620;SDS011;31345;51.522;10.702;2023-05-23T02:10:42;28.23;;;20.63;;
45620;SDS011;31345;51.522;10.702;2023-05-23T02:13:15;25.40;;;21.25;;
45620;SDS011;31345;51.522;10.702;2023-05-23T02:15:48;26.92;;;21.40;;
45620;SDS011;31345;51.522;10.702;2023-05-23T02:18:21;26.02;;;21.10;;
45620;SDS011;31345;51.522;10.702;2023-05-23T02:20:56;28.73;;;22.67;;
45620;SDS011;31345;51.522;10.702;2023-05-23T02:23:29;28.38;;;22.08;;
45620;SDS011;31345;51.522;10.702;2023-05-23T02:26:01;29.42;;;21.15;;
45620;SDS011;31345;51.522;10.702;2023-05-23T02:28:34;28.50;;;21.02;;
45620;SDS011;31345;51.522;10.702;2023-05-23T02:31:07;29.20;;;22.30;;
45620;SDS011;31345;51.522;10.702;2023-05-23T02:33:40;27.92;;;21.75;;
45620;SDS011;31345;51.522;10.702;2023-05-23T02:36:13;29.80;;;23.00;;
45620;SDS011;31345;51.522;10.702;2023-05-23T02:38:45;27.48;;;21.80;;
45620;SDS011;31345;51.522;10.702;2023-05-23T02:41:18;29.42;;;22.73;;
45620;SDS011;31345;51.522;10.702;2023-05-23T02:43:51;27.38;;;22.75;;
45620;SDS011;31345;51.522;10.702;2023-05-23T02:46:25;27.55;;;22.58;;
45620;SDS011;31345;51.522;10.702;2023-05-23T02:48:52;29.25;;;21.33;;
45620;SDS011;31345;51.522;10.702;2023-05-23T02:51:25;26.50;;;22.17;;
45620;SDS011;31345;51.522;10.702;2023-05-23T02:53:57;25.88;;;20.05;;
45620;SDS011;31345;51.522;10.702;2023-05-23T02:56:30;26.70;;;20.52;;
45620;SDS011;31345;51.522;10.702;2023-05-23T02:59:03;27.17;;;19.73;;
45620;SDS011;31345;51.522;10.702;2023-05-23T03:01:37;24.05;;;20.20;;
45620;SDS011;31345;51.522;10.702;2023-05-23T03:04:09;25.20;;;19.67;;
45620;SDS011;31345;51.522;10.702;2023-05-23T03:06:43;28.42;;;20.73;;
45620;SDS011;31345;51.522;10.702;2023-05-23T03:09:17;25.80;;;18.83;;
45620;SDS011;31345;51.522;10.702;2023-05-23T03:11:49;26.70;;;20.65;;
45620;SDS011;31345;51.522;10.702;2023-05-23T03:14:17;27.38;;;21.35;;
45620;SDS011;31345;51.522;10.702;2023-05-23T03:16:51;28.55;;;20.98;;
45620;SDS011;31345;51.522;10.702;2023-05-23T03:19:23;26.08;;;20.83;;
45620;SDS011;31345;51.522;10.702;2023-05-23T03:21:56;30.08;;;21.77;;
45620;SDS011;31345;51.522;10.702;2023-05-23T03:24:28;27.55;;;21.45;;
45620;SDS011;31345;51.522;10.702;2023-05-23T03:26:57;25.80;;;20.98;;
45620;SDS011;31345;51.522;10.702;2023-05-23T03:29:29;29.23;;;21.48;;
45620;SDS011;31345;51.522;10.702;2023-05-23T03:32:04;29.38;;;21.65;;
45620;SDS011;31345;51.522;10.702;2023-05-23T03:34:37;27.88;;;21.40;;
45620;SDS011;31345;51.522;10.702;2023-05-23T03:37:10;26.75;;;20.75;;
45620;SDS011;31345;51.522;10.702;2023-05-23T03:39:42;28.95;;;22.30;;
45620;SDS011;31345;51.522;10.702;2023-05-23T03:42:14;27.90;;;22.05;;
45620;SDS011;31345;51.522;10.702;2023-05-23T03:44:49;27.42;;;20.80;;
45620;SDS011;31345;51.522;10.702;2023-05-23T03:47:22;31.13;;;23.50;;
45620;SDS011;31345;51.522;10.702;2023-05-23T03:49:55;32.10;;;24.58;;
45620;SDS011;31345;51.522;10.702;2023-05-23T03:52:29;33.83;;;25.10;;
45620;SDS011;31345;51.522;10.702;2023-05-23T03:55:02;32.42;;;24.63;;
45620;SDS011;31345;51.522;10.702;2023-05-23T03:57:35;36.78;;;26.00;;
45620;SDS011;31345;51.522;10.702;2023-05-23T04:00:08;33.78;;;26.25;;
45620;SDS011;31345;51.522;10.702;2023-05-23T04:02:49;36.92;;;25.75;;
45620;SDS011;31345;51.522;10.702;2023-05-23T04:05:23;35.13;;;25.75;;
45620;SDS011;31345;51.522;10.702;2023-05-23T04:07:56;34.53;;;25.80;;
45620;SDS011;31345;51.522;10.702;2023-05-23T04:10:32;30.45;;;23.45;;
45620;SDS011;31345;51.522;10.702;2023-05-23T04:13:04;32.25;;;24.35;;
45620;SDS011;31345;51.522;10.702;2023-05-23T04:15:37;34.80;;;25.80;;
45620;SDS011;31345;51.522;10.702;2023-05-23T04:18:14;33.25;;;25.05;;
45620;SDS011;31345;51.522;10.702;2023-05-23T04:20:47;35.35;;;25.20;;
45620;SDS011;31345;51.522;10.702;2023-05-23T04:23:20;31.45;;;24.50;;
45620;SDS011;31345;51.522;10.702;2023-05-23T04:25:56;30.30;;;23.73;;
45620;SDS011;31345;51.522;10.702;2023-05-23T04:28:33;29.38;;;21.23;;
45620;SDS011;31345;51.522;10.702;2023-05-23T04:31:06;31.08;;;20.63;;
45620;SDS011;31345;51.522;10.702;2023-05-23T04:33:42;28.60;;;21.88;;
45620;SDS011;31345;51.522;10.702;2023-05-23T04:36:15;26.48;;;21.23;;
45620;SDS011;31345;51.522;10.702;2023-05-23T04:38:53;25.48;;;20.23;;
45620;SDS011;31345;51.522;10.702;2023-05-23T04:41:26;23.42;;;18.63;;
45620;SDS011;31345;51.522;10.702;2023-05-23T04:44:17;25.65;;;18.23;;
45620;SDS011;31345;51.522;10.702;2023-05-23T04:47:04;21.80;;;16.92;;
45620;SDS011;31345;51.522;10.702;2023-05-23T04:49:59;26.77;;;18.13;;
45620;SDS011;31345;51.522;10.702;2023-05-23T04:52:40;24.23;;;17.38;;
45620;SDS011;31345;51.522;10.702;2023-05-23T04:55:14;25.23;;;17.23;;
45620;SDS011;31345;51.522;10.702;2023-05-23T04:57:47;21.40;;;16.55;;
45620;SDS011;31345;51.522;10.702;2023-05-23T05:00:19;22.73;;;15.73;;
45620;SDS011;31345;51.522;10.702;2023-05-23T05:02:52;20.80;;;15.65;;
45620;SDS011;31345;51.522;10.702;2023-05-23T05:05:28;23.55;;;16.33;;
45620;SDS011;31345;51.522;10.702;2023-05-23T05:08:01;24.20;;;16.75;;
45620;SDS011;31345;51.522;10.702;2023-05-23T05:10:33;19.27;;;14.50;;
45620;SDS011;31345;51.522;10.702;2023-05-23T05:13:07;19.17;;;15.32;;
45620;SDS011;31345;51.522;10.702;2023-05-23T05:15:48;20.40;;;15.25;;
45620;SDS011;31345;51.522;10.702;2023-05-23T05:18:21;21.70;;;15.85;;
45620;SDS011;31345;51.522;10.702;2023-05-23T05:20:59;22.60;;;15.50;;
45620;SDS011;31345;51.522;10.702;2023-05-23T05:23:31;23.20;;;15.75;;
45620;SDS011;31345;51.522;10.702;2023-05-23T05:26:04;20.15;;;15.10;;
45620;SDS011;31345;51.522;10.702;2023-05-23T05:28:38;18.80;;;14.65;;
45620;SDS011;31345;51.522;10.702;2023-05-23T05:31:11;20.40;;;15.55;;
45620;SDS011;31345;51.522;10.702;2023-05-23T05:33:45;21.42;;;15.13;;
45620;SDS011;31345;51.522;10.702;2023-05-23T05:36:20;18.98;;;14.75;;
45620;SDS011;31345;51.522;10.702;2023-05-23T05:38:54;18.88;;;14.15;;
45620;SDS011;31345;51.522;10.702;2023-05-23T05:41:26;21.08;;;14.93;;
45620;SDS011;31345;51.522;10.702;2023-05-23T05:43:54;16.25;;;14.30;;
45620;SDS011;31345;51.522;10.702;2023-05-23T05:46:27;18.10;;;14.82;;
45620;SDS011;31345;51.522;10.702;2023-05-23T05:48:59;20.00;;;15.52;;
45620;SDS011;31345;51.522;10.702;2023-05-23T05:51:33;17.73;;;14.30;;
45620;SDS011;31345;51.522;10.702;2023-05-23T05:54:06;19.38;;;14.05;;
45620;SDS011;31345;51.522;10.702;2023-05-23T05:56:39;18.90;;;13.98;;
45620;SDS011;31345;51.522;10.702;2023-05-23T05:59:12;20.75;;;14.55;;
45620;SDS011;31345;51.522;10.702;2023-05-23T06:01:45;17.98;;;13.07;;
45620;SDS011;31345;51.522;10.702;2023-05-23T06:04:18;18.15;;;14.18;;
45620;SDS011;31345;51.522;10.702;2023-05-23T06:06:55;21.83;;;15.55;;
45620;SDS011;31345;51.522;10.702;2023-05-23T06:09:28;20.10;;;14.93;;
45620;SDS011;31345;51.522;10.702;2023-05-23T06:12:00;18.90;;;15.18;;
45620;SDS011;31345;51.522;10.702;2023-05-23T06:14:35;22.27;;;16.65;;
45620;SDS011;31345;51.522;10.702;2023-05-23T06:17:08;20.63;;;15.70;;
45620;SDS011;31345;51.522;10.702;2023-05-23T06:19:40;17.45;;;14.82;;
45620;SDS011;31345;51.522;10.702;2023-05-23T06:22:09;20.77;;;16.25;;
45620;SDS011;31345;51.522;10.702;2023-05-23T06:24:42;17.02;;;14.07;;
45620;SDS011;31345;51.522;10.702;2023-05-23T06:27:15;17.60;;;14.90;;
45620;SDS011;31345;51.522;10.702;2023-05-23T06:29:47;19.38;;;14.35;;
45620;SDS011;31345;51.522;10.702;2023-05-23T06:32:15;19.27;;;13.07;;
45620;SDS011;31345;51.522;10.702;2023-05-23T06:34:42;14.85;;;11.68;;
45620;SDS011;31345;51.522;10.702;2023-05-23T06:37:16;14.23;;;10.57;;
45620;SDS011;31345;51.522;10.702;2023-05-23T06:39:49;13.75;;;10.95;;
45620;SDS011;31345;51.522;10.702;2023-05-23T06:42:17;12.18;;;10.23;;
45620;SDS011;31345;51.522;10.702;2023-05-23T06:45:06;12.25;;;9.82;;
45620;SDS011;31345;51.522;10.702;2023-05-23T06:47:34;11.77;;;9.15;;
45620;SDS011;31345;51.522;10.702;2023-05-23T06:50:07;12.32;;;9.38;;
45620;SDS011;31345;51.522;10.702;2023-05-23T06:52:36;14.00;;;9.50;;
45620;SDS011;31345;51.522;10.702;2023-05-23T06:55:04;11.35;;;8.95;;
45620;SDS011;31345;51.522;10.702;2023-05-23T06:57:37;13.23;;;8.93;;
45620;SDS011;31345;51.522;10.702;2023-05-23T07:00:10;11.63;;;9.02;;
45620;SDS011;31345;51.522;10.702;2023-05-23T07:02:49;11.52;;;8.93;;
45620;SDS011;31345;51.522;10.702;2023-05-23T07:05:25;10.93;;;8.88;;
45620;SDS011;31345;51.522;10.702;2023-05-23T07:07:59;9.93;;;8.30;;
45620;SDS011;31345;51.522;10.702;2023-05-23T07:10:32;10.55;;;7.18;;
45620;SDS011;31345;51.522;10.702;2023-05-23T07:13:15;11.18;;;7.63;;
45620;SDS011;31345;51.522;10.702;2023-05-23T07:15:48;10.77;;;7.85;;
45620;SDS011;31345;51.522;10.702;2023-05-23T07:18:23;10.52;;;7.47;;
45620;SDS011;31345;51.522;10.702;2023-05-23T07:20:56;10.80;;;7.78;;
45620;SDS011;31345;51.522;10.702;2023-05-23T07:23:32;8.93;;;7.32;;
45620;SDS011;31345;51.522;10.702;2023-05-23T07:26:00;12.85;;;7.45;;
45620;SDS011;31345;51.522;10.702;2023-05-23T07:28:39;8.85;;;6.28;;
45620;SDS011;31345;51.522;10.702;2023-05-23T07:31:12;7.15;;;5.90;;
45620;SDS011;31345;51.522;10.702;2023-05-23T07:33:45;8.75;;;5.95;;
45620;SDS011;31345;51.522;10.702;2023-05-23T07:36:25;8.43;;;5.97;;
45620;SDS011;31345;51.522;10.702;2023-05-23T07:38:59;7.00;;;5.60;;
45620;SDS011;31345;51.522;10.702;2023-05-23T07:41:32;8.80;;;5.18;;
45620;SDS011;31345;51.522;10.702;2023-05-23T07:44:04;5.45;;;4.57;;
45620;SDS011;31345;51.522;10.702;2023-05-23T07:46:38;8.18;;;4.68;;
45620;SDS011;31345;51.522;10.702;2023-05-23T07:49:10;6.05;;;4.43;;
45620;SDS011;31345;51.522;10.702;2023-05-23T07:51:44;8.13;;;5.20;;
45620;SDS011;31345;51.522;10.702;2023-05-23T07:54:18;7.68;;;5.25;;
45620;SDS011;31345;51.522;10.702;2023-05-23T07:56:53;6.25;;;5.07;;
45620;SDS011;31345;51.522;10.702;2023-05-23T07:59:25;6.15;;;4.70;;
45620;SDS011;31345;51.522;10.702;2023-05-23T08:02:00;6.75;;;4.75;;
45620;SDS011;31345;51.522;10.702;2023-05-23T08:04:27;9.02;;;5.88;;
45620;SDS011;31345;51.522;10.702;2023-05-23T08:07:01;8.18;;;5.72;;
45620;SDS011;31345;51.522;10.702;2023-05-23T08:12:14;7.70;;;5.57;;
45620;SDS011;31345;51.522;10.702;2023-05-23T08:14:48;7.20;;;5.93;;
45620;SDS011;31345;51.522;10.702;2023-05-23T08:17:22;12.43;;;6.65;;
45620;SDS011;31345;51.522;10.702;2023-05-23T08:19:56;7.47;;;6.32;;
45620;SDS011;31345;51.522;10.702;2023-05-23T08:22:30;9.75;;;6.82;;
45620;SDS011;31345;51.522;10.702;2023-05-23T08:25:04;10.05;;;7.20;;
45620;SDS011;31345;51.522;10.702;2023-05-23T08:27:40;9.35;;;6.28;;
45620;SDS011;31345;51.522;10.702;2023-05-23T08:30:28;10.45;;;6.88;;
45620;SDS011;31345;51.522;10.702;2023-05-23T08:33:03;8.75;;;6.72;;
45620;SDS011;31345;51.522;10.702;2023-05-23T08:35:33;10.27;;;7.45;;
45620;SDS011;31345;51.522;10.702;2023-05-23T08:38:04;7.57;;;6.78;;
45620;SDS011;31345;51.522;10.702;2023-05-23T08:40:41;8.35;;;6.85;;
45620;SDS011;31345;51.522;10.702;2023-05-23T08:43:15;11.20;;;7.25;;
45620;SDS011;31345;51.522;10.702;2023-05-23T08:45:43;8.50;;;6.95;;
45620;SDS011;31345;51.522;10.702;2023-05-23T08:48:12;8.65;;;6.35;;
45620;SDS011;31345;51.522;10.702;2023-05-23T08:50:44;9.30;;;6.78;;
45620;SDS011;31345;51.522;10.702;2023-05-23T08:53:15;9.73;;;7.20;;
45620;SDS011;31345;51.522;10.702;2023-05-23T08:55:48;7.80;;;6.95;;
45620;SDS011;31345;51.522;10.702;2023-05-23T08:58:23;8.20;;;6.50;;
45620;SDS011;31345;51.522;10.702;2023-05-23T09:01:00;8.43;;;6.38;;
45620;SDS011;31345;51.522;10.702;2023-05-23T09:03:34;7.78;;;6.65;;
45620;SDS011;31345;51.522;10.702;2023-05-23T09:06:20;8.23;;;6.65;;
45620;SDS011;31345;51.522;10.702;2023-05-23T09:08:48;8.82;;;6.78;;
45620;SDS011;31345;51.522;10.702;2023-05-23T09:11:24;8.38;;;7.03;;
45620;SDS011;31345;51.522;10.702;2023-05-23T09:13:57;9.10;;;7.13;;
45620;SDS011;31345;51.522;10.702;2023-05-23T09:16:31;6.95;;;5.88;;
45620;SDS011;31345;51.522;10.702;2023-05-23T09:19:10;8.30;;;6.50;;
45620;SDS011;31345;51.522;10.702;2023-05-23T09:21:45;8.20;;;5.97;;
45620;SDS011;31345;51.522;10.702;2023-05-23T09:24:32;6.68;;;5.60;;
45620;SDS011;31345;51.522;10.702;2023-05-23T09:27:03;7.18;;;6.45;;
45620;SDS011;31345;51.522;10.702;2023-05-23T09:29:37;7.65;;;6.13;;
45620;SDS011;31345;51.522;10.702;2023-05-23T09:32:12;7.50;;;6.05;;
45620;SDS011;31345;51.522;10.702;2023-05-23T09:34:56;6.15;;;4.95;;
45620;SDS011;31345;51.522;10.702;2023-05-23T09:37:30;5.55;;;4.80;;
45620;SDS011;31345;51.522;10.702;2023-05-23T09:39:59;5.22;;;3.75;;
45620;SDS011;31345;51.522;10.702;2023-05-23T09:42:35;4.68;;;3.67;;
45620;SDS011;31345;51.522;10.702;2023-05-23T09:45:12;3.88;;;3.03;;
45620;SDS011;31345;51.522;10.702;2023-05-23T09:47:47;4.03;;;3.00;;
45620;SDS011;31345;51.522;10.702;2023-05-23T09:50:20;3.58;;;2.75;;
45620;SDS011;31345;51.522;10.702;2023-05-23T09:52:54;2.85;;;2.20;;
45620;SDS011;31345;51.522;10.702;2023-05-23T09:55:22;2.97;;;2.05;;
45620;SDS011;31345;51.522;10.702;2023-05-23T09:57:58;3.47;;;2.15;;
45620;SDS011;31345;51.522;10.702;2023-05-23T10:00:31;3.10;;;2.15;;
45620;SDS011;31345;51.522;10.702;2023-05-23T10:03:07;2.80;;;1.95;;
45620;SDS011;31345;51.522;10.702;2023-05-23T10:05:40;4.85;;;2.20;;
45620;SDS011;31345;51.522;10.702;2023-05-23T10:08:17;2.85;;;1.98;;
45620;SDS011;31345;51.522;10.702;2023-05-23T10:14:23;3.05;;;2.30;;
45620;SDS011;31345;51.522;10.702;2023-05-23T10:16:57;3.88;;;2.45;;
45620;SDS011;31345;51.522;10.702;2023-05-23T10:19:37;3.53;;;2.58;;
45620;SDS011;31345;51.522;10.702;2023-05-23T10:22:14;3.97;;;2.53;;
45620;SDS011;31345;51.522;10.702;2023-05-23T10:24:48;3.35;;;2.53;;
45620;SDS011;31345;51.522;10.702;2023-05-23T10:27:21;4.55;;;2.17;;
45620;SDS011;31345;51.522;10.702;2023-05-23T10:29:55;3.30;;;2.00;;
45620;SDS011;31345;51.522;10.702;2023-05-23T10:32:28;3.15;;;1.95;;
45620;SDS011;31345;51.522;10.702;2023-05-23T10:35:04;4.07;;;1.65;;
45620;SDS011;31345;51.522;10.702;2023-05-23T10:37:45;2.38;;;1.70;;
45620;SDS011;31345;51.522;10.702;2023-05-23T10:40:27;2.30;;;1.80;;
45620;SDS011;31345;51.522;10.702;2023-05-23T10:43:01;2.78;;;2.08;;
45620;SDS011;31345;51.522;10.702;2023-05-23T10:45:40;3.35;;;1.85;;
45620;SDS011;31345;51.522;10.702;2023-05-23T10:48:21;2.92;;;1.92;;
45620;SDS011;31345;51.522;10.702;2023-05-23T10:51:04;2.83;;;1.90;;
45620;SDS011;31345;51.522;10.702;2023-05-23T10:53:34;3.50;;;2.00;;
45620;SDS011;31345;51.522;10.702;2023-05-23T10:56:07;2.78;;;1.77;;
45620;SDS011;31345;51.522;10.702;2023-05-23T10:58:41;2.47;;;1.98;;
45620;SDS011;31345;51.522;10.702;2023-05-23T11:01:12;4.30;;;2.10;;
45620;SDS011;31345;51.522;10.702;2023-05-23T11:03:48;1.85;;;1.20;;
45620;SDS011;31345;51.522;10.702;2023-05-23T11:06:30;3.28;;;1.48;;
45620;SDS011;31345;51.522;10.702;2023-05-23T11:09:04;2.42;;;1.52;;
45620;SDS011;31345;51.522;10.702;2023-05-23T11:11:50;4.75;;;1.48;;
45620;SDS011;31345;51.522;10.702;2023-05-23T11:14:30;2.72;;;1.80;;
45620;SDS011;31345;51.522;10.702;2023-05-23T11:17:14;4.50;;;1.63;;
45620;SDS011;31345;51.522;10.702;2023-05-23T11:19:57;5.38;;;1.98;;
45620;SDS011;31345;51.522;10.702;2023-05-23T11:22:26;3.75;;;1.80;;
45620;SDS011;31345;51.522;10.702;2023-05-23T11:24:55;2.53;;;1.70;;
45620;SDS011;31345;51.522;10.702;2023-05-23T11:27:27;6.18;;;2.08;;
45620;SDS011;31345;51.522;10.702;2023-05-23T11:29:57;4.13;;;1.80;;
45620;SDS011;31345;51.522;10.702;2023-05-23T11:32:32;3.83;;;2.40;;
45620;SDS011;31345;51.522;10.702;2023-05-23T11:35:00;4.15;;;2.70;;
45620;SDS011;31345;51.522;10.702;2023-05-23T11:37:34;3.47;;;2.50;;
45620;SDS011;31345;51.522;10.702;2023-05-23T11:42:54;5.30;;;2.70;;
45620;SDS011;31345;51.522;10.702;2023-05-23T11:45:27;3.20;;;2.13;;
45620;SDS011;31345;51.522;10.702;2023-05-23T11:48:06;3.03;;;1.65;;
45620;SDS011;31345;51.522;10.702;2023-05-23T11:50:43;2.88;;;1.50;;
45620;SDS011;31345;51.522;10.702;2023-05-23T11:53:18;2.47;;;1.52;;
45620;SDS011;31345;51.522;10.702;2023-05-23T11:55:52;2.20;;;1.40;;
45620;SDS011;31345;51.522;10.702;2023-05-23T11:58:27;2.45;;;1.38;;
45620;SDS011;31345;51.522;10.702;2023-05-23T12:01:00;3.00;;;1.70;;
45620;SDS011;31345;51.522;10.702;2023-05-23T12:03:44;3.42;;;1.52;;
45620;SDS011;31345;51.522;10.702;2023-05-23T12:06:18;4.93;;;2.10;;
45620;SDS011;31345;51.522;10.702;2023-05-23T12:08:46;3.38;;;2.00;;
45620;SDS011;31345;51.522;10.702;2023-05-23T12:11:19;3.75;;;2.25;;
45620;SDS011;31345;51.522;10.702;2023-05-23T12:13:52;3.47;;;2.42;;
45620;SDS011;31345;51.522;10.702;2023-05-23T12:16:24;6.47;;;2.47;;
45620;SDS011;31345;51.522;10.702;2023-05-23T12:18:56;4.25;;;2.58;;
45620;SDS011;31345;51.522;10.702;2023-05-23T12:21:25;4.82;;;3.15;;
45620;SDS011;31345;51.522;10.702;2023-05-23T12:23:53;4.65;;;3.28;;
45620;SDS011;31345;51.522;10.702;2023-05-23T12:26:21;3.97;;;3.13;;
45620;SDS011;31345;51.522;10.702;2023-05-23T12:28:48;5.38;;;2.85;;
45620;SDS011;31345;51.522;10.702;2023-05-23T12:31:17;5.13;;;3.20;;
45620;SDS011;31345;51.522;10.702;2023-05-23T12:33:51;3.88;;;3.10;;
45620;SDS011;31345;51.522;10.702;2023-05-23T12:36:26;4.72;;;2.90;;
45620;SDS011;31345;51.522;10.702;2023-05-23T12:39:00;5.22;;;3.40;;
45620;SDS011;31345;51.522;10.702;2023-05-23T12:41:34;3.35;;;2.58;;
45620;SDS011;31345;51.522;10.702;2023-05-23T12:44:07;3.88;;;2.30;;
45620;SDS011;31345;51.522;10.702;2023-05-23T12:46:40;4.45;;;2.28;;
45620;SDS011;31345;51.522;10.702;2023-05-23T12:49:12;3.67;;;2.13;;
45620;SDS011;31345;51.522;10.702;2023-05-23T12:51:41;5.28;;;2.30;;
45620;SDS011;31345;51.522;10.702;2023-05-23T12:54:09;4.32;;;2.55;;
45620;SDS011;31345;51.522;10.702;2023-05-23T12:56:41;3.25;;;2.38;;
45620;SDS011;31345;51.522;10.702;2023-05-23T12:59:14;4.90;;;2.78;;
45620;SDS011;31345;51.522;10.702;2023-05-23T13:01:46;4.10;;;2.35;;
45620;SDS011;31345;51.522;10.702;2023-05-23T13:04:19;4.70;;;2.53;;
45620;SDS011;31345;51.522;10.702;2023-05-23T13:06:47;3.63;;;2.30;;
45620;SDS011;31345;51.522;10.702;2023-05-23T13:09:15;5.18;;;3.00;;
45620;SDS011;31345;51.522;10.702;2023-05-23T13:11:47;4.25;;;2.63;;
45620;SDS011;31345;51.522;10.702;2023-05-23T13:14:15;5.72;;;2.60;;
45620;SDS011;31345;51.522;10.702;2023-05-23T13:16:42;4.45;;;3.15;;
45620;SDS011;31345;51.522;10.702;2023-05-23T13:19:10;5.93;;;3.40;;
45620;SDS011;31345;51.522;10.702;2023-05-23T13:21:43;5.10;;;3.22;;
45620;SDS011;31345;51.522;10.702;2023-05-23T13:24:17;5.80;;;3.50;;
45620;SDS011;31345;51.522;10.702;2023-05-23T13:26:50;6.95;;;4.07;;
45620;SDS011;31345;51.522;10.702;2023-05-23T13:29:17;5.85;;;4.28;;
45620;SDS011;31345;51.522;10.702;2023-05-23T13:31:50;6.95;;;4.13;;
45620;SDS011;31345;51.522;10.702;2023-05-23T13:34:18;6.75;;;4.75;;
45620;SDS011;31345;51.522;10.702;2023-05-23T13:36:46;8.20;;;4.72;;
45620;SDS011;31345;51.522;10.702;2023-05-23T13:39:20;6.35;;;4.60;;
45620;SDS011;31345;51.522;10.702;2023-05-23T13:41:53;7.38;;;5.20;;
45620;SDS011;31345;51.522;10.702;2023-05-23T13:44:20;6.80;;;5.10;;
45620;SDS011;31345;51.522;10.702;2023-05-23T13:46:53;5.78;;;3.88;;
45620;SDS011;31345;51.522;10.702;2023-05-23T13:49:21;5.50;;;4.13;;
45620;SDS011;31345;51.522;10.702;2023-05-23T13:51:49;7.28;;;4.57;;
45620;SDS011;31345;51.522;10.702;2023-05-23T13:54:23;6.38;;;4.38;;
45620;SDS011;31345;51.522;10.702;2023-05-23T13:56:55;8.15;;;4.40;;
45620;SDS011;31345;51.522;10.702;2023-05-23T13:59:23;4.97;;;4.18;;
45620;SDS011;31345;51.522;10.702;2023-05-23T14:01:51;8.27;;;4.70;;
45620;SDS011;31345;51.522;10.702;2023-05-23T14:04:24;8.70;;;4.30;;
45620;SDS011;31345;51.522;10.702;2023-05-23T14:06:57;6.00;;;4.20;;
45620;SDS011;31345;51.522;10.702;2023-05-23T14:09:32;8.77;;;4.65;;
45620;SDS011;31345;51.522;10.702;2023-05-23T14:12:05;7.65;;;4.95;;
45620;SDS011;31345;51.522;10.702;2023-05-23T14:14:38;10.18;;;5.47;;
45620;SDS011;31345;51.522;10.702;2023-05-23T14:17:13;7.40;;;5.22;;
45620;SDS011;31345;51.522;10.702;2023-05-23T14:19:45;8.82;;;4.97;;
45620;SDS011;31345;51.522;10.702;2023-05-23T14:22:14;11.18;;;6.18;;
45620;SDS011;31345;51.522;10.702;2023-05-23T14:24:48;7.47;;;5.50;;
45620;SDS011;31345;51.522;10.702;2023-05-23T14:27:15;8.65;;;5.55;;
45620;SDS011;31345;51.522;10.702;2023-05-23T14:29:43;7.82;;;5.50;;
45620;SDS011;31345;51.522;10.702;2023-05-23T14:32:16;9.25;;;5.55;;
45620;SDS011;31345;51.522;10.702;2023-05-23T14:34:49;8.52;;;4.70;;
45620;SDS011;31345;51.522;10.702;2023-05-23T14:37:21;11.13;;;5.43;;
45620;SDS011;31345;51.522;10.702;2023-05-23T14:39:55;7.75;;;4.57;;
45620;SDS011;31345;51.522;10.702;2023-05-23T14:42:28;7.90;;;5.18;;
45620;SDS011;31345;51.522;10.702;2023-05-23T14:45:00;8.30;;;4.65;;
45620;SDS011;31345;51.522;10.702;2023-05-23T14:47:33;7.90;;;4.40;;
45620;SDS011;31345;51.522;10.702;2023-05-23T14:50:02;9.35;;;4.93;;
45620;SDS011;31345;51.522;10.702;2023-05-23T14:52:35;8.07;;;4.70;;
45620;SDS011;31345;51.522;10.702;2023-05-23T14:55:09;9.98;;;5.47;;
45620;SDS011;31345;51.522;10.702;2023-05-23T14:57:42;11.55;;;5.25;;
45620;SDS011;31345;51.522;10.702;2023-05-23T15:00:14;6.85;;;5.13;;
45620;SDS011;31345;51.522;10.702;2023-05-23T15:02:47;8.48;;;4.97;;
45620;SDS011;31345;51.522;10.702;2023-05-23T15:05:21;7.75;;;5.10;;
45620;SDS011;31345;51.522;10.702;2023-05-23T15:07:55;9.48;;;4.82;;
45620;SDS011;31345;51.522;10.702;2023-05-23T15:10:24;6.97;;;4.93;;